Time;durP1;ratioP1;P1;durP2;ratioP2;P2;SDS_P1;SDS_P2;PMS_P1;PMS_P2;Temp;Humidity;BMP_temperature;BMP_pressure;BME280_temperature;BME280_humidity;BME280_pressure;Samples;Min_cycle;Max_cycle;Signal;HPM_P1;HPM_P2
2022/03/05 00:02:07;;;;;;;33.63;15.97;;;4.10;90.40;;;;;;7328717;19;110167;-87
2022/03/05 00:04:34;;;;;;;29.90;15.57;;;4.10;90.40;;;;;;7336845;19;114612;-86
2022/03/05 00:07:02;;;;;;;30.97;15.20;;;4.10;90.70;;;;;;7330380;19;111714;-86
2022/03/05 00:09:29;;;;;;;29.20;13.97;;;4.10;90.60;;;;;;7331978;19;112609;-87
2022/03/05 00:11:57;;;;;;;28.57;15.30;;;4.00;91.00;;;;;;7341340;19;110893;-86
2022/03/05 00:14:25;;;;;;;28.17;14.57;;;4.10;90.80;;;;;;7337943;19;112964;-87
2022/03/05 00:16:52;;;;;;;27.57;14.80;;;4.10;90.70;;;;;;7340334;19;111589;-86
2022/03/05 00:19:19;;;;;;;28.47;14.50;;;4.10;90.30;;;;;;7337865;19;111788;-87
2022/03/05 00:21:46;;;;;;;29.93;14.83;;;4.20;90.00;;;;;;7335247;19;111120;-86
2022/03/05 00:24:13;;;;;;;34.10;14.83;;;4.20;89.80;;;;;;7338454;19;111382;-86
2022/03/05 00:26:40;;;;;;;29.67;14.73;;;4.10;89.80;;;;;;7342955;19;116006;-86
2022/03/05 00:29:07;;;;;;;29.30;14.93;;;4.10;90.10;;;;;;7337027;19;114979;-85
2022/03/05 00:31:34;;;;;;;32.43;16.17;;;4.00;90.60;;;;;;7340701;19;112275;-86
2022/03/05 00:34:02;;;;;;;29.60;14.73;;;3.80;91.80;;;;;;7337307;19;110953;-86
2022/03/05 00:36:30;;;;;;;28.50;14.50;;;3.70;91.90;;;;;;7334557;19;111632;-86
2022/03/05 00:38:57;;;;;;;29.13;15.37;;;3.70;91.40;;;;;;7333990;19;112225;-86
2022/03/05 00:41:24;;;;;;;30.17;14.30;;;3.70;91.30;;;;;;7336780;19;111157;-85
2022/03/05 00:43:51;;;;;;;28.43;15.10;;;3.70;91.50;;;;;;7339246;19;111618;-86
2022/03/05 00:46:18;;;;;;;30.03;15.87;;;3.60;92.20;;;;;;7336529;19;111336;-86
2022/03/05 00:48:46;;;;;;;31.30;15.27;;;3.60;92.20;;;;;;7343814;19;110774;-85
2022/03/05 00:51:13;;;;;;;28.27;15.53;;;3.50;92.50;;;;;;7331339;19;111526;-85
2022/03/05 00:53:40;;;;;;;27.37;15.20;;;3.50;92.60;;;;;;7337244;19;109942;-86
2022/03/05 00:56:07;;;;;;;31.77;15.80;;;3.40;93.00;;;;;;7336168;19;111780;-85
2022/03/05 00:58:34;;;;;;;33.10;15.30;;;3.30;93.80;;;;;;7335820;19;111201;-87
2022/03/05 01:01:01;;;;;;;34.67;16.33;;;3.20;94.10;;;;;;7339232;19;112334;-86
2022/03/05 01:03:29;;;;;;;27.77;14.70;;;3.10;94.30;;;;;;7336346;19;111531;-86
2022/03/05 01:05:56;;;;;;;28.57;15.47;;;3.20;94.00;;;;;;7336062;19;111667;-86
2022/03/05 01:08:23;;;;;;;27.87;14.70;;;3.20;93.80;;;;;;7335777;19;110202;-86
2022/03/05 01:10:50;;;;;;;29.17;14.77;;;3.20;93.80;;;;;;7340633;19;113221;-86
2022/03/05 01:13:17;;;;;;;26.27;13.90;;;3.20;94.10;;;;;;7339171;19;110621;-86
2022/03/05 01:15:44;;;;;;;27.20;14.77;;;3.10;94.20;;;;;;7336736;19;114003;-86
2022/03/05 01:18:12;;;;;;;27.77;13.77;;;3.10;94.30;;;;;;7336059;19;111361;-85
2022/03/05 01:20:39;;;;;;;29.03;14.17;;;3.10;94.30;;;;;;7333639;19;112588;-86
2022/03/05 01:23:06;;;;;;;27.90;13.50;;;3.10;94.40;;;;;;7337991;19;111400;-86
2022/03/05 01:25:33;;;;;;;28.87;13.83;;;3.00;94.70;;;;;;7336638;19;111627;-86
2022/03/05 01:28:00;;;;;;;26.83;14.40;;;3.00;95.20;;;;;;7335840;19;110546;-86
2022/03/05 01:30:28;;;;;;;28.47;13.77;;;3.00;95.40;;;;;;7338108;19;111834;-87
2022/03/05 01:32:55;;;;;;;27.83;14.60;;;3.00;95.00;;;;;;7339786;19;111614;-87
2022/03/05 01:35:23;;;;;;;27.80;13.70;;;3.00;94.70;;;;;;7337509;19;111486;-86
2022/03/05 01:37:50;;;;;;;34.13;13.77;;;3.00;95.40;;;;;;7337347;19;111199;-87
2022/03/05 01:40:17;;;;;;;28.93;14.63;;;2.90;95.10;;;;;;7334176;19;111468;-86
2022/03/05 01:42:44;;;;;;;26.10;14.07;;;2.90;95.30;;;;;;7336747;19;110759;-87
2022/03/05 01:45:11;;;;;;;29.70;13.27;;;2.90;95.50;;;;;;7333978;19;112118;-87
2022/03/05 01:47:39;;;;;;;32.33;15.20;;;2.80;95.60;;;;;;7337150;19;110405;-86
2022/03/05 01:50:08;;;;;;;31.60;14.93;;;2.80;95.70;;;;;;7337191;19;111454;-87
2022/03/05 01:52:35;;;;;;;41.40;15.30;;;2.80;95.60;;;;;;7333507;19;113082;-86
2022/03/05 01:55:03;;;;;;;38.63;14.87;;;2.80;95.90;;;;;;7342239;19;110194;-86
2022/03/05 01:57:30;;;;;;;39.93;14.33;;;2.70;95.80;;;;;;7335270;19;112067;-86
2022/03/05 01:59:58;;;;;;;33.00;13.63;;;2.60;96.50;;;;;;7332907;19;110566;-86
2022/03/05 02:02:25;;;;;;;37.33;14.47;;;2.60;96.70;;;;;;7336784;19;111468;-86
2022/03/05 02:04:52;;;;;;;32.33;14.73;;;2.60;96.50;;;;;;7333298;19;111748;-86
2022/03/05 02:07:20;;;;;;;31.13;13.93;;;2.60;96.40;;;;;;7336641;19;111571;-86
2022/03/05 02:09:47;;;;;;;34.13;14.40;;;2.70;96.10;;;;;;7332273;19;116362;-85
2022/03/05 02:12:14;;;;;;;31.20;14.33;;;2.70;96.00;;;;;;7334409;19;112567;-86
2022/03/05 02:14:41;;;;;;;30.60;13.80;;;2.70;96.10;;;;;;7342154;19;113908;-86
2022/03/05 02:17:10;;;;;;;30.80;13.60;;;2.60;96.80;;;;;;7331773;19;111944;-86
2022/03/05 02:19:37;;;;;;;31.13;14.17;;;2.50;97.10;;;;;;7332997;19;110533;-86
2022/03/05 02:22:06;;;;;;;35.23;13.60;;;2.40;97.70;;;;;;7332216;19;111818;-86
2022/03/05 02:24:33;;;;;;;29.30;14.13;;;2.40;97.60;;;;;;7333571;19;111863;-86
2022/03/05 02:27:04;;;;;;;29.13;13.83;;;2.40;97.60;;;;;;7337305;19;110884;-86
2022/03/05 02:29:36;;;;;;;31.50;14.00;;;2.40;97.30;;;;;;7332086;19;111529;-86
2022/03/05 02:32:04;;;;;;;32.23;13.43;;;2.40;97.00;;;;;;7336798;19;112072;-86
2022/03/05 02:34:31;;;;;;;33.43;14.03;;;2.40;97.20;;;;;;7334235;19;110520;-86
2022/03/05 02:36:59;;;;;;;29.13;13.43;;;2.40;97.40;;;;;;7340069;19;111403;-86
2022/03/05 02:39:26;;;;;;;30.90;13.97;;;2.30;97.20;;;;;;7335031;19;110650;-86
2022/03/05 02:41:54;;;;;;;29.40;13.83;;;2.40;96.90;;;;;;7331358;19;113403;-86
2022/03/05 02:44:21;;;;;;;30.97;14.30;;;2.40;97.00;;;;;;7335554;19;112145;-86
2022/03/05 02:46:50;;;;;;;32.17;13.90;;;2.30;97.10;;;;;;7336401;19;110675;-86
2022/03/05 02:49:17;;;;;;;29.60;13.40;;;2.20;97.70;;;;;;7332460;19;111421;-86
2022/03/05 02:51:44;;;;;;;29.63;15.03;;;2.20;97.40;;;;;;7334625;19;112251;-86
2022/03/05 02:54:12;;;;;;;33.23;13.83;;;2.20;97.00;;;;;;7330455;19;110987;-86
2022/03/05 02:56:39;;;;;;;29.73;13.43;;;2.30;96.80;;;;;;7333968;19;111369;-86
2022/03/05 02:59:06;;;;;;;30.90;13.97;;;2.30;96.70;;;;;;7340190;19;110799;-86
2022/03/05 03:01:33;;;;;;;37.00;13.53;;;2.30;97.10;;;;;;7333080;19;111469;-87
2022/03/05 03:04:02;;;;;;;37.80;14.00;;;2.20;97.50;;;;;;7332987;19;111831;-86
2022/03/05 03:06:29;;;;;;;31.60;14.07;;;2.20;97.50;;;;;;7331654;19;110790;-87
2022/03/05 03:08:56;;;;;;;31.50;14.30;;;2.20;97.60;;;;;;7333422;19;111482;-86
2022/03/05 03:11:23;;;;;;;28.87;13.50;;;2.10;97.60;;;;;;7333106;19;111791;-89
2022/03/05 03:13:50;;;;;;;27.60;14.30;;;2.10;97.80;;;;;;7333408;19;110774;-88
2022/03/05 03:16:17;;;;;;;36.50;15.27;;;2.00;98.30;;;;;;7334708;19;111479;-88
2022/03/05 03:18:44;;;;;;;35.10;13.73;;;1.90;98.70;;;;;;7332431;19;111657;-88
2022/03/05 03:21:11;;;;;;;35.57;14.47;;;1.80;98.60;;;;;;7337476;19;111766;-88
2022/03/05 03:23:38;;;;;;;34.63;14.67;;;1.90;98.40;;;;;;7335976;19;116500;-88
2022/03/05 03:26:05;;;;;;;29.63;13.97;;;1.80;98.50;;;;;;7331984;19;110919;-88
2022/03/05 03:28:32;;;;;;;33.67;14.47;;;1.80;98.70;;;;;;7335819;19;111464;-88
2022/03/05 03:31:00;;;;;;;33.10;14.20;;;1.80;98.30;;;;;;7331303;19;113283;-88
2022/03/05 03:33:27;;;;;;;35.33;14.90;;;1.80;98.40;;;;;;7326908;19;111464;-88
2022/03/05 03:35:54;;;;;;;29.43;14.80;;;1.90;98.30;;;;;;7331120;19;111554;-89
2022/03/05 03:38:21;;;;;;;33.90;15.27;;;1.90;98.70;;;;;;7327955;19;112510;-87
2022/03/05 03:40:48;;;;;;;30.77;14.80;;;1.90;98.20;;;;;;7330666;19;111755;-88
2022/03/05 03:43:15;;;;;;;32.83;15.03;;;1.80;98.70;;;;;;7335251;19;112327;-88
2022/03/05 03:45:43;;;;;;;31.53;14.50;;;1.70;98.70;;;;;;7327970;19;111084;-87
2022/03/05 03:48:10;;;;;;;30.17;15.00;;;1.70;98.70;;;;;;7331051;19;113014;-88
2022/03/05 03:50:37;;;;;;;36.60;15.20;;;1.70;98.90;;;;;;7327525;19;111966;-88
2022/03/05 03:53:05;;;;;;;35.33;15.53;;;1.70;98.90;;;;;;7327800;19;111625;-87
2022/03/05 03:55:32;;;;;;;30.47;14.80;;;1.70;98.50;;;;;;7332473;19;110572;-88
2022/03/05 03:57:59;;;;;;;28.57;14.33;;;1.70;98.50;;;;;;7330510;19;112080;-88
2022/03/05 04:00:26;;;;;;;34.40;15.37;;;1.70;98.60;;;;;;7335488;19;110268;-88
2022/03/05 04:02:53;;;;;;;35.70;15.50;;;1.70;98.40;;;;;;7332748;19;112854;-89
2022/03/05 04:05:20;;;;;;;30.97;15.23;;;1.70;98.60;;;;;;7338790;19;112068;-88
2022/03/05 04:10:33;;;;;;;36.90;16.33;;;1.60;98.60;;;;;;7332424;19;110867;-88
2022/03/05 04:13:00;;;;;;;35.20;16.40;;;1.60;98.80;;;;;;7334576;19;111514;-87
2022/03/05 04:15:27;;;;;;;35.37;15.87;;;1.60;99.00;;;;;;7331898;19;111332;-88
2022/03/05 04:17:55;;;;;;;35.97;15.30;;;1.50;99.20;;;;;;7331033;19;112083;-89
2022/03/05 04:20:22;;;;;;;38.33;16.13;;;1.50;99.20;;;;;;7334247;19;111527;-88
2022/03/05 04:22:49;;;;;;;35.33;15.97;;;1.50;99.10;;;;;;7330871;19;111514;-88
2022/03/05 04:25:16;;;;;;;35.97;16.33;;;1.50;99.10;;;;;;7339467;19;111066;-88
2022/03/05 04:27:43;;;;;;;40.10;16.50;;;1.60;98.90;;;;;;7333929;19;111863;-89
2022/03/05 04:30:10;;;;;;;34.70;16.03;;;1.40;99.40;;;;;;7332185;19;110726;-88
2022/03/05 04:32:38;;;;;;;32.50;15.10;;;1.40;99.60;;;;;;7333241;19;110555;-89
2022/03/05 04:35:07;;;;;;;38.93;16.00;;;1.40;99.80;;;;;;7332086;19;110615;-88
2022/03/05 04:37:37;;;;;;;38.13;15.50;;;1.30;99.80;;;;;;7333652;19;111751;-89
2022/03/05 04:40:05;;;;;;;35.67;16.47;;;1.30;99.90;;;;;;7333068;19;110448;-89
2022/03/05 04:42:33;;;;;;;34.97;15.70;;;1.20;99.90;;;;;;7333147;19;111448;-89
2022/03/05 04:45:02;;;;;;;32.87;15.90;;;1.20;99.90;;;;;;7334457;19;111352;-89
2022/03/05 04:47:29;;;;;;;34.90;15.70;;;1.20;99.90;;;;;;7337581;19;112348;-89
2022/03/05 04:49:57;;;;;;;31.90;15.03;;;1.30;99.80;;;;;;7334551;19;111770;-89
2022/03/05 04:52:24;;;;;;;32.43;14.70;;;1.30;99.30;;;;;;7330809;19;111435;-89
2022/03/05 04:54:51;;;;;;;29.53;14.33;;;1.30;99.00;;;;;;7331996;19;111369;-89
2022/03/05 04:57:19;;;;;;;31.27;15.07;;;1.30;98.90;;;;;;7337811;19;112649;-89
2022/03/05 04:59:46;;;;;;;33.37;15.57;;;1.30;98.70;;;;;;7337688;19;111283;-89
2022/03/05 05:02:13;;;;;;;36.20;15.23;;;1.30;99.30;;;;;;7340422;19;111904;-89
2022/03/05 05:04:40;;;;;;;33.73;14.60;;;1.30;99.40;;;;;;7341512;19;111758;-89
2022/03/05 05:07:08;;;;;;;33.43;15.30;;;1.20;99.40;;;;;;7337106;19;111459;-89
2022/03/05 05:09:35;;;;;;;36.23;14.47;;;1.10;99.70;;;;;;7345422;19;113087;-89
2022/03/05 05:12:03;;;;;;;30.93;14.50;;;1.10;99.00;;;;;;7339085;19;113611;-89
2022/03/05 05:14:30;;;;;;;32.47;14.93;;;1.10;98.90;;;;;;7340218;19;111775;-89
2022/03/05 05:16:57;;;;;;;37.07;14.83;;;1.10;99.30;;;;;;7340631;19;111834;-89
2022/03/05 05:19:30;;;;;;;38.57;15.17;;;1.10;98.80;;;;;;7339017;19;111252;-89
2022/03/05 05:22:00;;;;;;;31.20;14.97;;;1.10;99.70;;;;;;7340584;19;112055;-89
2022/03/05 05:24:30;;;;;;;35.87;15.13;;;1.00;99.60;;;;;;7340506;19;110504;-89
2022/03/05 05:26:58;;;;;;;30.13;14.47;;;1.00;99.40;;;;;;7338453;19;111739;-89
2022/03/05 05:29:25;;;;;;;39.00;16.27;;;1.00;99.20;;;;;;7341626;19;111756;-90
2022/03/05 05:32:10;;;;;;;38.37;15.90;;;0.90;99.20;;;;;;7342444;19;111094;-90
2022/03/05 05:34:39;;;;;;;31.60;14.80;;;0.90;99.70;;;;;;7338989;19;111462;-90
2022/03/05 05:37:13;;;;;;;29.90;14.60;;;0.80;99.30;;;;;;7338920;19;111844;-90
2022/03/05 05:39:41;;;;;;;31.87;14.33;;;0.80;99.10;;;;;;7337429;19;111904;-91
2022/03/05 05:42:08;;;;;;;32.90;14.33;;;0.80;99.20;;;;;;7339061;19;111300;-90
2022/03/05 05:44:53;;;;;;;37.90;16.43;;;0.70;99.60;;;;;;7340087;19;113620;-90
2022/03/05 05:47:20;;;;;;;34.97;15.33;;;0.60;99.90;;;;;;7336515;19;113151;-91
2022/03/05 05:49:48;;;;;;;34.83;14.97;;;0.60;99.90;;;;;;7341407;19;111306;-90
2022/03/05 05:52:15;;;;;;;32.90;14.20;;;0.50;99.90;;;;;;7337838;19;113460;-90
2022/03/05 05:54:55;;;;;;;31.80;13.43;;;0.60;99.70;;;;;;7342754;19;111544;-90
2022/03/05 05:57:24;;;;;;;35.73;14.23;;;0.60;99.30;;;;;;7340898;19;111176;-90
2022/03/05 05:59:51;;;;;;;34.17;15.10;;;0.60;99.90;;;;;;7337275;19;110524;-90
2022/03/05 06:02:18;;;;;;;32.33;14.13;;;0.60;99.90;;;;;;7339760;19;111364;-90
2022/03/05 06:04:48;;;;;;;27.00;13.57;;;0.60;99.40;;;;;;7339596;19;111761;-91
2022/03/05 06:07:29;;;;;;;31.30;14.63;;;0.70;99.00;;;;;;7332958;19;113088;-90
2022/03/05 06:09:56;;;;;;;37.70;15.03;;;0.70;98.80;;;;;;7341062;19;111823;-90
2022/03/05 06:12:23;;;;;;;31.33;14.73;;;0.80;99.20;;;;;;7338712;19;111786;-89
2022/03/05 06:14:50;;;;;;;30.00;14.53;;;0.70;99.40;;;;;;7337617;19;112093;-90
2022/03/05 06:17:17;;;;;;;30.20;14.33;;;0.70;99.30;;;;;;7344230;19;109889;-90
2022/03/05 06:19:45;;;;;;;31.83;13.60;;;0.60;99.10;;;;;;7336463;19;110348;-89
2022/03/05 06:22:12;;;;;;;34.47;15.00;;;0.60;98.90;;;;;;7339615;19;111990;-89
2022/03/05 06:24:39;;;;;;;38.57;13.97;;;0.50;98.90;;;;;;7338678;19;110729;-90
2022/03/05 06:27:06;;;;;;;29.67;13.53;;;0.50;99.30;;;;;;7335225;19;111817;-90
2022/03/05 06:29:35;;;;;;;33.30;14.37;;;0.40;99.60;;;;;;7340259;19;110604;-90
2022/03/05 06:32:03;;;;;;;33.37;14.10;;;0.40;99.30;;;;;;7337398;19;111794;-90
2022/03/05 06:34:31;;;;;;;32.87;14.63;;;0.50;99.20;;;;;;7338575;19;111146;-90
2022/03/05 06:37:00;;;;;;;34.67;14.47;;;0.50;99.10;;;;;;7344479;19;111171;-89
2022/03/05 06:39:27;;;;;;;33.63;14.80;;;0.50;99.20;;;;;;7337009;19;110281;-90
2022/03/05 06:41:55;;;;;;;33.47;15.43;;;0.50;99.60;;;;;;7337914;19;111617;-90
2022/03/05 06:44:22;;;;;;;33.97;15.10;;;0.40;99.90;;;;;;7336769;19;110764;-89
2022/03/05 06:46:49;;;;;;;31.93;15.07;;;0.40;99.90;;;;;;7335314;19;110858;-90
2022/03/05 06:49:16;;;;;;;32.93;15.10;;;0.40;99.90;;;;;;7351590;19;110428;-91
2022/03/05 06:51:43;;;;;;;34.27;15.20;;;0.40;99.90;;;;;;7337603;19;111919;-90
2022/03/05 06:54:10;;;;;;;35.53;14.90;;;0.40;99.90;;;;;;7339434;19;110458;-91
2022/03/05 06:56:38;;;;;;;46.37;16.33;;;0.40;99.90;;;;;;7336819;19;111358;-92
2022/03/05 06:59:05;;;;;;;33.67;14.67;;;0.40;99.90;;;;;;7344631;19;113310;-92
2022/03/05 07:01:34;;;;;;;45.83;17.07;;;0.50;99.90;;;;;;7338625;19;111811;-91
2022/03/05 07:04:01;;;;;;;46.93;17.43;;;0.60;99.90;;;;;;7335826;19;112023;-91
2022/03/05 07:06:29;;;;;;;46.17;17.83;;;0.60;99.90;;;;;;7336776;19;109986;-90
2022/03/05 07:08:57;;;;;;;44.07;16.37;;;0.50;99.90;;;;;;7334022;19;110913;-89
2022/03/05 07:11:24;;;;;;;39.53;17.33;;;0.50;99.90;;;;;;7338151;19;111066;-92
2022/03/05 07:13:51;;;;;;;37.70;17.40;;;0.50;99.90;;;;;;7338587;19;110316;-91
2022/03/05 07:16:18;;;;;;;44.70;18.07;;;0.50;99.90;;;;;;7335834;19;111577;-89
2022/03/05 07:18:45;;;;;;;38.00;16.57;;;0.60;99.90;;;;;;7339569;19;111302;-94
2022/03/05 07:21:12;;;;;;;38.13;17.27;;;0.70;99.90;;;;;;7342754;19;111396;-91
2022/03/05 07:23:40;;;;;;;41.77;18.40;;;0.90;99.90;;;;;;7335549;19;111835;-90
2022/03/05 07:26:07;;;;;;;45.73;18.13;;;1.00;99.90;;;;;;7336099;19;113299;-90
2022/03/05 07:28:34;;;;;;;45.57;18.07;;;1.10;99.90;;;;;;7334608;19;110504;-90
2022/03/05 07:31:02;;;;;;;41.63;17.33;;;1.10;99.90;;;;;;7336967;19;109840;-88
2022/03/05 07:33:29;;;;;;;44.30;18.17;;;1.10;99.90;;;;;;7346465;19;110100;-95
2022/03/05 07:35:56;;;;;;;45.00;17.47;;;1.20;99.90;;;;;;7351960;19;109899;-95
2022/03/05 07:38:23;;;;;;;41.03;17.97;;;1.30;99.90;;;;;;7341329;19;113265;-94
2022/03/05 07:40:50;;;;;;;40.47;17.67;;;1.30;99.90;;;;;;7336754;19;110082;-96
2022/03/05 07:43:17;;;;;;;46.30;18.13;;;1.40;99.90;;;;;;7343730;19;109919;-95
2022/03/05 07:45:44;;;;;;;39.50;17.77;;;1.50;99.90;;;;;;7338582;19;110202;-95
2022/03/05 07:48:12;;;;;;;43.47;17.93;;;1.60;99.90;;;;;;7343166;19;113523;-94
2022/03/05 07:50:39;;;;;;;35.90;17.63;;;1.70;99.90;;;;;;7338496;19;112110;-94
2022/03/05 07:53:06;;;;;;;38.23;17.70;;;1.80;99.90;;;;;;7335778;19;111169;-94
2022/03/05 07:55:34;;;;;;;45.70;19.63;;;1.80;99.90;;;;;;7338028;19;110661;-93
2022/03/05 07:58:01;;;;;;;45.10;18.60;;;2.00;99.90;;;;;;7341062;19;111511;-95
2022/03/05 08:00:28;;;;;;;40.23;18.13;;;2.00;99.90;;;;;;7336893;19;110281;-94
2022/03/05 08:02:56;;;;;;;41.10;18.03;;;1.90;99.90;;;;;;7344907;19;110434;-94
2022/03/05 08:05:23;;;;;;;39.47;18.67;;;2.00;99.90;;;;;;7343118;19;111129;-96
2022/03/05 08:07:52;;;;;;;39.93;18.40;;;2.10;99.90;;;;;;7339831;19;110434;-95
2022/03/05 08:10:22;;;;;;;41.00;18.37;;;2.20;99.90;;;;;;7351078;19;113728;-96
2022/03/05 08:12:49;;;;;;;48.70;19.17;;;2.20;99.90;;;;;;7345467;19;109099;-96
2022/03/05 08:15:17;;;;;;;41.40;18.77;;;2.30;99.90;;;;;;7354591;19;109456;-96
2022/03/05 08:17:53;;;;;;;47.67;18.43;;;2.40;99.90;;;;;;7345089;19;110058;-96
2022/03/05 08:20:21;;;;;;;43.87;18.70;;;2.60;99.90;;;;;;7337513;19;109406;-95
2022/03/05 08:22:49;;;;;;;45.13;18.50;;;2.70;99.90;;;;;;7332063;19;112176;-95
2022/03/05 08:25:19;;;;;;;43.27;18.07;;;2.90;99.90;;;;;;7350412;19;109840;-96
2022/03/05 08:27:48;;;;;;;40.90;19.73;;;3.00;99.90;;;;;;7347063;19;110588;-96
2022/03/05 08:30:20;;;;;;;50.20;20.67;;;3.30;99.90;;;;;;7365140;19;110295;-96
2022/03/05 08:32:47;;;;;;;39.17;18.50;;;3.40;99.90;;;;;;7375425;19;109855;-96
2022/03/05 08:35:15;;;;;;;41.43;19.33;;;3.40;99.90;;;;;;7372350;19;110649;-96
2022/03/05 08:37:43;;;;;;;45.37;19.97;;;3.50;99.90;;;;;;7370259;19;112296;-95
2022/03/05 08:40:13;;;;;;;41.43;19.57;;;3.60;99.90;;;;;;7357615;19;112503;-95
2022/03/05 08:48:04;;;;;;;50.03;21.40;;;4.00;99.90;;;;;;7369891;19;109755;-91
2022/03/05 08:50:32;;;;;;;45.17;21.23;;;4.10;99.90;;;;;;7344827;19;110677;-95
2022/03/05 08:52:59;;;;;;;42.80;21.40;;;4.20;99.90;;;;;;7350550;19;111625;-93
2022/03/05 08:55:26;;;;;;;61.60;25.93;;;4.30;99.90;;;;;;7345567;19;110431;-92
2022/03/05 08:57:53;;;;;;;53.77;21.37;;;4.40;99.90;;;;;;7344059;19;111588;-93
2022/03/05 09:00:47;;;;;;;43.07;20.40;;;4.50;99.60;;;;;;7346256;19;111739;-93
2022/03/05 09:03:31;;;;;;;40.60;20.23;;;4.60;99.60;;;;;;7341062;19;111409;-92
2022/03/05 09:06:12;;;;;;;42.00;20.33;;;4.60;99.50;;;;;;7346393;19;111935;-94
2022/03/05 09:08:39;;;;;;;42.63;21.23;;;4.50;99.40;;;;;;7350021;19;111123;-92
2022/03/05 09:11:06;;;;;;;42.07;21.03;;;4.50;99.50;;;;;;7355706;19;111159;-93
2022/03/05 09:13:33;;;;;;;45.57;20.30;;;4.60;99.40;;;;;;7348517;19;109756;-94
2022/03/05 09:16:00;;;;;;;38.30;21.43;;;4.50;99.30;;;;;;7350871;19;111818;-94
2022/03/05 09:18:28;;;;;;;42.90;20.73;;;4.50;99.20;;;;;;7348906;19;111915;-94
2022/03/05 09:20:56;;;;;;;44.93;21.07;;;4.60;99.10;;;;;;7349277;19;112950;-94
2022/03/05 09:23:23;;;;;;;40.97;21.40;;;4.80;99.20;;;;;;7349598;19;110731;-95
2022/03/05 09:25:50;;;;;;;44.77;21.70;;;5.00;99.30;;;;;;7350355;19;110710;-95
2022/03/05 09:28:17;;;;;;;38.87;20.93;;;5.20;98.70;;;;;;7349832;19;112121;-95
2022/03/05 09:36:19;;;;;;;48.60;21.77;;;5.60;97.70;;;;;;7343707;19;109446;-94
2022/03/05 09:38:53;;;;;;;48.00;21.57;;;5.60;98.10;;;;;;7354039;19;112848;-94
2022/03/05 09:41:22;;;;;;;40.83;21.03;;;5.70;97.70;;;;;;7352968;19;109711;-92
2022/03/05 09:43:49;;;;;;;41.80;21.27;;;5.90;97.60;;;;;;7353878;19;110470;-93
2022/03/05 09:46:22;;;;;;;44.73;22.10;;;6.00;97.60;;;;;;7349742;19;110479;-92
2022/03/05 09:48:56;;;;;;;38.63;20.73;;;6.00;96.60;;;;;;7349366;19;110230;-91
2022/03/05 09:51:24;;;;;;;41.60;20.20;;;6.00;97.00;;;;;;7349151;19;114044;-93
2022/03/05 09:53:52;;;;;;;40.00;21.63;;;6.10;96.90;;;;;;7349867;19;109840;-93
2022/03/05 09:56:20;;;;;;;46.47;23.17;;;6.30;97.20;;;;;;7359658;19;110313;-93
2022/03/05 09:58:51;;;;;;;42.37;22.30;;;6.40;96.20;;;;;;7366552;19;111196;-96
2022/03/05 10:01:19;;;;;;;37.67;21.27;;;6.60;96.70;;;;;;7361590;19;110287;-95
2022/03/05 10:03:55;;;;;;;43.57;23.00;;;6.70;96.90;;;;;;7363727;19;111928;-96
2022/03/05 10:12:32;;;;;;;42.67;22.70;;;6.80;96.00;;;;;;7352406;19;109592;-94
2022/03/05 10:15:17;;;;;;;41.47;21.83;;;6.80;95.50;;;;;;7360120;19;110052;-95
2022/03/05 10:17:56;;;;;;;44.37;22.20;;;6.80;96.00;;;;;;7357827;19;109725;-95
2022/03/05 10:53:07;;;;;;;41.53;22.63;;;8.60;94.20;;;;;;7354165;19;109429;-95
2022/03/05 11:10:14;;;;;;;37.97;21.90;;;9.50;93.00;;;;;;7347692;19;110679;-92
2022/03/05 11:12:43;;;;;;;44.22;22.30;;;9.60;92.40;;;;;;7351029;19;111904;-92
2022/03/05 11:15:10;;;;;;;38.45;22.48;;;9.50;92.80;;;;;;7346251;19;112185;-93
2022/03/05 11:17:41;;;;;;;40.47;22.63;;;9.60;93.10;;;;;;7344024;19;110187;-92
2022/03/05 11:20:08;;;;;;;37.47;22.02;;;9.80;92.90;;;;;;7343507;19;112095;-92
2022/03/05 11:22:36;;;;;;;43.95;23.08;;;9.80;92.80;;;;;;7344026;19;111238;-92
2022/03/05 11:25:04;;;;;;;44.65;23.48;;;9.80;91.50;;;;;;7347520;19;110411;-92
2022/03/05 11:27:31;;;;;;;43.53;22.83;;;9.80;91.40;;;;;;7344845;19;110705;-94
2022/03/05 11:30:05;;;;;;;44.67;22.90;;;9.90;92.10;;;;;;7346243;19;111576;-92
2022/03/05 11:32:35;;;;;;;40.45;23.38;;;10.10;91.30;;;;;;7351240;19;109792;-94
2022/03/05 11:35:22;;;;;;;37.80;22.05;;;10.20;91.60;;;;;;7349226;19;110739;-94
2022/03/05 11:37:50;;;;;;;39.03;21.95;;;10.40;91.70;;;;;;7353870;19;109109;-93
2022/03/05 11:40:39;;;;;;;47.58;24.77;;;10.30;88.70;;;;;;7350569;19;111968;-94
2022/03/05 11:43:26;;;;;;;91.88;44.90;;;10.30;90.60;;;;;;7352976;19;113401;-95
2022/03/05 11:46:02;;;;;;;259.00;149.05;;;10.40;90.90;;;;;;7360613;19;109819;-95
2022/03/05 11:48:36;;;;;;;49.80;26.45;;;10.60;90.10;;;;;;7360480;19;112105;-95
2022/03/05 11:51:09;;;;;;;249.68;145.25;;;10.70;88.70;;;;;;7363063;19;109800;-94
2022/03/05 11:53:36;;;;;;;43.88;26.75;;;10.70;89.20;;;;;;7345979;19;113027;-95
2022/03/05 11:56:23;;;;;;;41.15;23.40;;;10.70;87.40;;;;;;7355778;19;115250;-94
2022/03/05 11:58:51;;;;;;;40.78;23.75;;;10.60;88.80;;;;;;7353091;19;109895;-96
2022/03/05 12:01:32;;;;;;;48.17;25.83;;;10.90;90.30;;;;;;7354324;19;110402;-92
2022/03/05 12:04:04;;;;;;;66.68;34.42;;;11.10;90.40;;;;;;7349485;19;111200;-94
2022/03/05 12:06:45;;;;;;;51.50;27.15;;;11.30;88.70;;;;;;7350986;19;110800;-96
2022/03/05 12:09:36;;;;;;;77.15;42.97;;;11.40;88.20;;;;;;7357694;19;110930;-95
2022/03/05 12:12:09;;;;;;;237.95;106.30;;;11.60;89.50;;;;;;7352729;19;111450;-94
2022/03/05 12:15:02;;;;;;;520.70;273.70;;;11.70;88.10;;;;;;7351043;19;113405;-94
2022/03/05 12:17:36;;;;;;;168.68;70.00;;;11.80;87.10;;;;;;7352926;19;116911;-94
2022/03/05 12:20:08;;;;;;;49.63;25.05;;;11.90;84.80;;;;;;7362303;19;110693;-95
2022/03/05 12:22:35;;;;;;;43.88;23.55;;;11.70;83.20;;;;;;7354790;19;110886;-93
2022/03/05 12:25:03;;;;;;;40.75;22.92;;;11.70;82.60;;;;;;7353941;19;113666;-94
2022/03/05 12:27:32;;;;;;;415.15;212.07;;;11.70;83.80;;;;;;7352751;19;110447;-94
2022/03/05 12:29:59;;;;;;;146.32;79.90;;;12.00;86.10;;;;;;7347584;19;113105;-91
2022/03/05 12:32:31;;;;;;;47.65;26.88;;;12.30;84.40;;;;;;7351822;19;110854;-94
2022/03/05 12:35:06;;;;;;;38.08;22.83;;;12.80;83.40;;;;;;7352057;19;109921;-93
2022/03/05 12:37:34;;;;;;;40.63;24.05;;;13.10;78.20;;;;;;7350946;19;111860;-93
2022/03/05 12:40:04;;;;;;;39.13;22.50;;;13.30;78.10;;;;;;7353991;19;114628;-94
2022/03/05 12:42:44;;;;;;;40.55;23.58;;;13.30;77.50;;;;;;7368611;19;109779;-92
2022/03/05 12:45:23;;;;;;;42.95;22.10;;;13.40;76.30;;;;;;7354676;19;111595;-93
2022/03/05 12:47:56;;;;;;;84.45;50.13;;;13.60;74.60;;;;;;7358315;19;109726;-93
2022/03/05 12:50:28;;;;;;;43.50;22.38;;;13.50;78.00;;;;;;7353866;19;112195;-93
2022/03/05 12:53:25;;;;;;;42.25;23.20;;;13.60;76.70;;;;;;7355632;19;110937;-93
2022/03/05 12:55:55;;;;;;;1268.45;551.35;;;13.70;75.20;;;;;;7351171;19;111441;-92
2022/03/05 12:58:27;;;;;;;511.38;360.38;;;13.70;76.00;;;;;;7348648;19;113593;-91
2022/03/05 13:00:56;;;;;;;546.92;332.92;;;14.00;73.70;;;;;;7346054;19;114567;-91
2022/03/05 13:03:26;;;;;;;41.70;22.02;;;14.00;71.90;;;;;;7352694;19;113662;-91
2022/03/05 13:05:54;;;;;;;36.90;19.95;;;14.10;71.20;;;;;;7347698;19;112134;-92
2022/03/05 13:08:26;;;;;;;38.38;22.05;;;14.10;73.50;;;;;;7346874;19;110363;-91
2022/03/05 13:11:02;;;;;;;81.55;40.58;;;14.20;72.10;;;;;;7348622;19;111672;-93
2022/03/05 13:13:55;;;;;;;184.80;103.43;;;14.20;72.50;;;;;;7350539;19;111706;-94
2022/03/05 13:16:23;;;;;;;;;;;14.50;69.30;;;;;;7348249;19;113827;-92
2022/03/05 13:19:02;;;;;;;126.25;54.10;;;14.50;68.90;;;;;;7356011;19;113550;-93
2022/03/05 13:21:38;;;;;;;103.28;51.15;;;14.50;69.70;;;;;;7350840;19;111140;-92
2022/03/05 13:24:07;;;;;;;41.47;22.00;;;14.60;67.60;;;;;;7349996;19;109935;-93
2022/03/05 13:26:35;;;;;;;43.53;22.23;;;14.50;69.00;;;;;;7357479;19;113476;-93
2022/03/05 13:29:04;;;;;;;42.40;21.77;;;14.60;69.70;;;;;;7348655;19;109894;-92
2022/03/05 13:31:32;;;;;;;39.85;23.67;;;14.60;68.60;;;;;;7348749;19;109902;-94
2022/03/05 13:34:00;;;;;;;34.50;16.17;;;14.50;69.80;;;;;;7349550;19;110894;-93
2022/03/05 13:36:29;;;;;;;44.80;22.67;;;14.90;66.20;;;;;;7349406;19;109946;-92
2022/03/05 13:39:21;;;;;;;38.42;21.38;;;14.90;67.80;;;;;;7347305;19;113379;-93
2022/03/05 13:41:50;;;;;;;39.15;22.48;;;14.90;67.40;;;;;;7346820;19;110650;-93
2022/03/05 13:44:27;;;;;;;35.85;21.65;;;14.90;68.30;;;;;;7349486;19;110746;-93